Time;durP1;ratioP1;P1;durP2;ratioP2;P2;SDS_P1;SDS_P2;PMS_P1;PMS_P2;Temp;Humidity;BMP_temperature;BMP_pressure;BME280_temperature;BME280_humidity;BME280_pressure;Samples;Min_cycle;Max_cycle;Signal;HPM_P1;HPM_P2
2023/07/09 00:00:26;;;;;;;10.25;4.30;;;;;;;18.52;100.00;96224.06;1034893;28;20010;-75
2023/07/09 00:00:56;;;;;;;5.72;3.80;;;;;;;18.51;100.00;96219.84;1033883;28;20084;-73
2023/07/09 00:01:27;;;;;;;10.75;4.95;;;;;;;18.50;100.00;96218.25;1030044;28;20031;-72
2023/07/09 00:01:57;;;;;;;6.80;4.60;;;;;;;18.49;100.00;96215.91;1026952;28;20018;-74
2023/07/09 00:02:28;;;;;;;10.63;4.13;;;;;;;18.48;100.00;96225.78;1027915;28;20567;-74
2023/07/09 00:02:58;;;;;;;10.23;4.78;;;;;;;18.48;100.00;96217.03;1041670;28;20028;-75
2023/07/09 00:03:29;;;;;;;7.68;4.38;;;;;;;18.46;100.00;96219.97;1038676;28;20036;-75
2023/07/09 00:03:59;;;;;;;11.30;4.57;;;;;;;18.48;100.00;96220.47;1039074;28;20076;-75
2023/07/09 00:04:30;;;;;;;11.88;4.05;;;;;;;18.47;100.00;96226.84;1037545;28;20022;-75
2023/07/09 00:05:00;;;;;;;12.93;4.32;;;;;;;18.41;100.00;96214.78;1027811;28;20091;-75
2023/07/09 00:05:30;;;;;;;10.27;5.10;;;;;;;18.45;100.00;96218.41;1030836;28;20022;-75
2023/07/09 00:06:01;;;;;;;9.23;4.70;;;;;;;18.44;100.00;96226.66;1031899;28;20603;-76
2023/07/09 00:06:31;;;;;;;7.25;4.13;;;;;;;18.43;100.00;96223.22;1043011;28;20063;-75
2023/07/09 00:07:03;;;;;;;12.32;4.88;;;;;;;18.42;100.00;96226.97;1039145;28;20036;-75
2023/07/09 00:07:33;;;;;;;8.00;4.15;;;;;;;18.41;100.00;96222.75;1035211;28;20446;-76
2023/07/09 00:08:03;;;;;;;9.70;4.20;;;;;;;18.35;100.00;96219.41;1033847;28;20041;-75
2023/07/09 00:08:34;;;;;;;8.15;3.83;;;;;;;18.42;100.00;96224.31;1043137;28;20602;-75
2023/07/09 00:09:04;;;;;;;11.80;4.20;;;;;;;18.40;100.00;96223.81;1047153;28;20032;-75
2023/07/09 00:09:35;;;;;;;8.68;4.18;;;;;;;18.45;100.00;96221.06;1041803;28;20033;-75
2023/07/09 00:10:19;;;;;;;8.27;4.82;;;;;;;18.48;100.00;96217.03;1043125;28;20093;-75
2023/07/09 00:10:49;;;;;;;8.30;4.30;;;;;;;18.53;100.00;96224.84;1039039;28;20460;-76
2023/07/09 00:11:20;;;;;;;10.80;4.45;;;;;;;18.63;100.00;96223.84;1034716;28;20070;-75
2023/07/09 00:11:51;;;;;;;7.93;4.47;;;;;;;18.64;100.00;96225.41;1034933;28;20037;-75
2023/07/09 00:12:21;;;;;;;14.13;4.88;;;;;;;18.59;100.00;96219.13;1034955;28;20033;-75
2023/07/09 00:12:52;;;;;;;8.05;4.68;;;;;;;18.64;100.00;96225.41;1033903;28;20116;-75
2023/07/09 00:13:23;;;;;;;9.20;4.30;;;;;;;18.57;100.00;96215.97;1039091;28;20033;-76
2023/07/09 00:13:53;;;;;;;11.50;4.28;;;;;;;18.61;100.00;96227.59;1043268;28;20060;-75
2023/07/09 00:14:24;;;;;;;11.32;5.10;;;;;;;18.61;100.00;96226.78;1047288;28;20040;-75
2023/07/09 00:14:54;;;;;;;6.93;3.60;;;;;;;18.61;100.00;96226.78;1041947;28;20021;-76
2023/07/09 00:15:25;;;;;;;8.90;3.90;;;;;;;18.60;100.00;96230.53;1035004;28;20126;-75
2023/07/09 00:15:58;;;;;;;15.32;5.10;;;;;;;18.58;100.00;96222.88;1039763;28;20752;-75
2023/07/09 00:16:54;;;;;;;7.60;3.97;;;;;;;18.56;100.00;96224.25;1040717;28;20033;-74
2023/07/09 00:17:33;;;;;;;6.43;4.25;;;;;;;18.54;100.00;96224.56;1037336;28;20029;-75
2023/07/09 00:18:03;;;;;;;8.38;4.13;;;;;;;18.56;100.00;96225.03;1038816;28;20018;-75
2023/07/09 00:18:34;;;;;;;9.07;4.07;;;;;;;18.56;100.00;96230.34;1042966;28;20025;-75
2023/07/09 00:19:09;;;;;;;13.90;4.18;;;;;;;18.58;100.00;96222.09;1044340;28;20025;-75
2023/07/09 00:19:40;;;;;;;7.47;4.38;;;;;;;18.56;100.00;96225.03;1043910;28;20102;-75
2023/07/09 00:20:16;;;;;;;10.02;4.47;;;;;;;18.53;100.00;96230.97;1041522;28;20355;-74
2023/07/09 00:20:48;;;;;;;10.98;4.63;;;;;;;18.50;100.00;96220.91;1043089;28;20021;-75
2023/07/09 00:21:20;;;;;;;9.90;4.30;;;;;;;18.51;100.00;96222.50;1038180;28;20021;-75
2023/07/09 00:21:53;;;;;;;6.85;4.35;;;;;;;18.51;100.00;96225.16;1030727;28;20022;-74
2023/07/09 00:22:23;;;;;;;5.70;3.92;;;;;;;18.49;100.00;96223.91;1034767;28;20022;-75
2023/07/09 00:22:54;;;;;;;10.27;4.10;;;;;;;18.50;100.00;96226.25;1030876;28;20026;-75
2023/07/09 00:23:24;;;;;;;6.45;4.00;;;;;;;18.50;100.00;96222.81;1022788;29;20030;-75
2023/07/09 00:23:54;;;;;;;12.10;4.63;;;;;;;18.42;100.00;96215.56;1026589;28;20081;-75
2023/07/09 00:24:26;;;;;;;10.07;4.55;;;;;;;18.43;100.00;96220.56;1030825;28;20597;-75
2023/07/09 00:24:57;;;;;;;13.63;4.63;;;;;;;18.48;100.00;96222.34;1031096;28;20038;-74
2023/07/09 00:25:27;;;;;;;10.88;4.80;;;;;;;18.44;100.00;96222.13;1036545;28;20508;-75
2023/07/09 00:25:58;;;;;;;7.82;3.85;;;;;;;18.27;100.00;96195.41;1039163;28;20034;-75
2023/07/09 00:26:30;;;;;;;9.63;4.38;;;;;;;18.45;100.00;96226.38;1039226;28;20029;-75
2023/07/09 00:27:00;;;;;;;8.15;4.13;;;;;;;18.46;100.00;96219.97;1039187;28;20021;-75
2023/07/09 00:27:31;;;;;;;9.68;4.75;;;;;;;18.46;100.00;96224.50;1034793;28;20018;-75
2023/07/09 00:28:02;;;;;;;6.70;3.38;;;;;;;18.46;100.00;96224.50;1038809;28;20037;-75
2023/07/09 00:28:32;;;;;;;6.82;4.03;;;;;;;18.44;100.00;96216.81;1038960;28;20045;-76
2023/07/09 00:29:03;;;;;;;8.15;3.78;;;;;;;18.43;100.00;96223.22;1035049;28;20228;-75
2023/07/09 00:29:33;;;;;;;7.80;4.22;;;;;;;18.45;100.00;96223.72;1034921;28;20036;-75
2023/07/09 00:30:05;;;;;;;12.57;4.47;;;;;;;18.53;100.00;96219.53;1038931;28;20021;-75
2023/07/09 00:30:35;;;;;;;9.48;3.72;;;;;;;18.54;100.00;96215.78;1034845;28;20030;-75
2023/07/09 00:31:11;;;;;;;9.95;3.95;;;;;;;18.66;100.00;96223.25;1034580;28;20484;-74
2023/07/09 00:31:42;;;;;;;6.93;4.20;;;;;;;18.64;100.00;96220.88;1038948;28;20041;-75
2023/07/09 00:32:16;;;;;;;8.68;4.00;;;;;;;18.60;100.00;96212.72;1034670;28;20073;-75
2023/07/09 00:32:51;;;;;;;10.07;4.40;;;;;;;18.73;100.00;96218.31;1030759;28;20590;-76
2023/07/09 00:33:22;;;;;;;7.65;3.88;;;;;;;18.69;100.00;96217.31;1030786;28;20504;-75
2023/07/09 00:33:52;;;;;;;9.48;4.60;;;;;;;18.76;100.00;96223.03;1031714;28;20031;-75
2023/07/09 00:34:26;;;;;;;7.88;4.47;;;;;;;18.74;100.00;96220.66;1034845;28;20057;-75
2023/07/09 00:34:56;;;;;;;9.50;4.82;;;;;;;18.73;100.00;96223.63;1035495;28;20025;-76
2023/07/09 00:35:26;;;;;;;8.07;3.95;;;;;;;18.70;100.00;96217.00;1030728;28;20034;-73
2023/07/09 00:35:57;;;;;;;8.25;4.10;;;;;;;18.75;100.00;96224.13;1035278;28;20030;-75
2023/07/09 00:36:33;;;;;;;10.00;4.13;;;;;;;18.76;100.00;96228.34;1034823;28;20022;-75
2023/07/09 00:37:09;;;;;;;6.30;3.92;;;;;;;18.85;100.00;96223.88;1038937;28;20444;-75
2023/07/09 00:37:39;;;;;;;10.48;4.43;;;;;;;18.91;100.00;96227.97;1030888;28;20025;-75
2023/07/09 00:38:13;;;;;;;8.52;4.30;;;;;;;18.90;100.00;96231.72;1030830;28;20022;-75
2023/07/09 00:38:47;;;;;;;6.50;3.65;;;;;;;18.84;100.00;96224.94;1033587;28;20034;-75
2023/07/09 00:39:22;;;;;;;8.05;4.40;;;;;;;18.83;100.00;96223.38;1039775;28;20028;-75
2023/07/09 00:39:52;;;;;;;6.60;3.97;;;;;;;18.86;100.00;96228.09;1038851;28;20060;-75
2023/07/09 00:40:23;;;;;;;9.15;4.18;;;;;;;18.89;100.00;96226.72;1034750;28;20033;-75
2023/07/09 00:41:03;;;;;;;7.38;4.35;;;;;;;18.92;100.00;96232.22;1034608;28;20033;-75
2023/07/09 00:41:35;;;;;;;9.00;3.80;;;;;;;18.94;100.00;96235.34;1034655;28;20128;-75
2023/07/09 00:42:07;;;;;;;8.50;3.95;;;;;;;18.91;100.00;96230.63;1030727;28;20038;-75
2023/07/09 00:42:37;;;;;;;6.20;3.75;;;;;;;18.87;100.00;96221.69;1032223;28;20649;-75
2023/07/09 00:43:10;;;;;;;9.02;4.03;;;;;;;18.96;100.00;96241.16;1026778;28;20022;-75
2023/07/09 00:43:40;;;;;;;6.45;3.80;;;;;;;18.96;100.00;96235.81;1026556;28;20050;-75
2023/07/09 00:44:20;;;;;;;10.88;4.28;;;;;;;18.97;100.00;96234.72;1028574;28;20496;-76
2023/07/09 00:44:54;;;;;;;11.15;3.80;;;;;;;18.98;100.00;96241.63;1030672;28;20034;-75
2023/07/09 00:45:27;;;;;;;9.85;4.80;;;;;;;18.98;100.00;96235.50;1034856;28;20026;-76
2023/07/09 00:46:19;;;;;;;9.82;4.20;;;;;;;18.99;100.00;96240.53;1037278;28;20039;-75
2023/07/09 00:46:49;;;;;;;9.40;3.90;;;;;;;18.98;100.00;96236.31;1034632;28;20021;-76
2023/07/09 00:47:43;;;;;;;12.05;3.88;;;;;;;19.01;100.00;96243.69;1034803;28;20032;-75
2023/07/09 00:48:14;;;;;;;7.35;4.18;;;;;;;19.03;100.00;96235.41;1038938;28;20487;-75
2023/07/09 00:48:47;;;;;;;8.70;4.35;;;;;;;19.00;100.00;96242.09;1038061;28;20081;-75
2023/07/09 00:49:29;;;;;;;6.70;4.32;;;;;;;19.01;100.00;96233.06;1034795;28;20029;-76
2023/07/09 00:50:09;;;;;;;10.52;4.15;;;;;;;19.07;100.00;96245.13;1034665;28;20125;-75
2023/07/09 00:50:45;;;;;;;11.45;4.97;;;;;;;19.06;100.00;96243.56;1031016;28;20026;-75
2023/07/09 00:51:17;;;;;;;10.10;4.38;;;;;;;19.05;100.00;96241.22;1030115;28;20026;-75
2023/07/09 00:51:47;;;;;;;6.72;3.90;;;;;;;19.02;100.00;96242.59;1030805;28;20544;-76
2023/07/09 00:52:32;;;;;;;10.35;4.75;;;;;;;19.02;100.00;96239.94;1035575;28;20029;-75
2023/07/09 00:53:17;;;;;;;10.43;4.20;;;;;;;18.99;100.00;96243.19;1034791;28;20030;-75
2023/07/09 00:53:51;;;;;;;10.10;4.10;;;;;;;19.02;100.00;96247.91;1035898;28;20507;-76
2023/07/09 00:54:30;;;;;;;8.98;4.20;;;;;;;19.00;100.00;96250.06;1034648;28;20026;-76
2023/07/09 00:55:03;;;;;;;7.00;4.05;;;;;;;18.93;100.00;96241.75;1038477;28;20037;-75
2023/07/09 00:55:37;;;;;;;12.43;4.45;;;;;;;18.98;100.00;96252.28;1036760;28;20175;-75
2023/07/09 00:56:09;;;;;;;9.65;3.97;;;;;;;18.97;100.00;96253.34;1038422;28;20107;-76
2023/07/09 00:56:42;;;;;;;6.10;4.07;;;;;;;18.91;100.00;96246.56;1034146;28;20052;-75
2023/07/09 00:57:17;;;;;;;7.10;3.90;;;;;;;18.94;100.00;96261.94;1034755;28;20022;-75
2023/07/09 00:57:55;;;;;;;10.00;5.13;;;;;;;18.91;100.00;96251.88;1039448;28;20022;-75
2023/07/09 00:58:27;;;;;;;10.65;4.07;;;;;;;18.89;100.00;96255.97;1039340;28;20025;-76
2023/07/09 00:59:01;;;;;;;6.43;3.78;;;;;;;18.88;100.00;96257.03;1038994;28;20033;-75
2023/07/09 00:59:31;;;;;;;9.70;3.97;;;;;;;18.83;100.00;96252.63;1034459;28;20040;-76
2023/07/09 01:00:12;;;;;;;8.38;4.70;;;;;;;18.79;100.00;96249.00;1038852;28;20423;-75
2023/07/09 01:00:49;;;;;;;9.60;4.53;;;;;;;18.78;100.00;96250.09;1030839;28;20096;-75
2023/07/09 01:01:19;;;;;;;5.35;3.80;;;;;;;18.80;100.00;96261.22;1031713;28;20100;-75
2023/07/09 01:01:50;;;;;;;8.95;4.10;;;;;;;18.77;100.00;96257.28;1034790;28;20053;-75
2023/07/09 01:02:23;;;;;;;9.90;4.45;;;;;;;18.71;100.00;96249.69;1030775;28;20030;-75
2023/07/09 01:02:57;;;;;;;10.80;4.68;;;;;;;18.72;100.00;96259.28;1026566;28;20486;-75
2023/07/09 01:03:42;;;;;;;7.82;4.22;;;;;;;18.72;100.00;96264.59;1030698;28;20071;-75
2023/07/09 01:04:16;;;;;;;9.23;4.20;;;;;;;18.72;100.00;96262.72;1030695;28;20022;-75
2023/07/09 01:04:48;;;;;;;7.15;4.40;;;;;;;18.73;100.00;96268.81;1030017;28;20033;-75
2023/07/09 01:05:19;;;;;;;12.00;4.97;;;;;;;18.67;100.00;96260.13;1030752;28;20034;-75
2023/07/09 01:05:51;;;;;;;8.60;4.43;;;;;;;18.73;100.00;96272.25;1026694;28;20033;-75
2023/07/09 01:06:30;;;;;;;12.85;4.20;;;;;;;18.72;100.00;96269.91;1029692;28;20031;-75
2023/07/09 01:07:00;;;;;;;9.20;4.63;;;;;;;18.67;100.00;96256.69;1032147;28;20023;-75
2023/07/09 01:07:31;;;;;;;8.85;4.30;;;;;;;18.70;100.00;96261.41;1030509;28;20041;-75
2023/07/09 01:08:01;;;;;;;9.15;4.95;;;;;;;18.70;100.00;96266.72;1030444;28;20038;-75
2023/07/09 01:08:32;;;;;;;9.15;4.60;;;;;;;18.65;100.00;96257.03;1030733;28;20027;-75
2023/07/09 01:09:03;;;;;;;8.93;4.82;;;;;;;18.69;100.00;96265.97;1026625;28;20496;-75
2023/07/09 01:09:35;;;;;;;8.30;5.05;;;;;;;18.66;100.00;96266.56;1031270;28;20041;-75
2023/07/09 01:10:06;;;;;;;7.50;4.88;;;;;;;18.67;100.00;96272.66;1030713;28;20019;-75
2023/07/09 01:10:36;;;;;;;10.38;4.65;;;;;;;18.60;100.00;96259.78;1031094;28;20030;-75
2023/07/09 01:11:20;;;;;;;12.95;4.97;;;;;;;18.54;100.00;96256.47;1030271;28;20022;-75
2023/07/09 01:11:52;;;;;;;9.13;4.50;;;;;;;18.58;100.00;96265.41;1032787;28;20023;-75
2023/07/09 01:12:25;;;;;;;8.52;4.07;;;;;;;18.51;100.00;96262.38;1026680;28;20034;-75
2023/07/09 01:12:56;;;;;;;9.43;4.30;;;;;;;18.52;100.00;96266.59;1030410;28;20512;-75
2023/07/09 01:13:27;;;;;;;7.82;4.88;;;;;;;18.51;100.00;96265.03;1030619;28;20031;-75
2023/07/09 01:14:01;;;;;;;9.60;4.50;;;;;;;18.49;100.00;96272.50;1030371;28;20093;-75
2023/07/09 01:14:31;;;;;;;8.70;5.20;;;;;;;18.49;100.00;96267.19;1027734;28;20027;-74
2023/07/09 01:15:01;;;;;;;10.95;4.78;;;;;;;18.47;100.00;96263.25;1038333;28;20021;-75
2023/07/09 01:15:34;;;;;;;10.77;4.90;;;;;;;18.42;100.00;96264.16;1030708;28;20022;-75
2023/07/09 01:16:04;;;;;;;6.85;4.88;;;;;;;18.43;100.00;96263.06;1034623;28;20524;-75
2023/07/09 01:16:59;;;;;;;13.52;4.93;;;;;;;18.38;100.00;96271.97;1032977;28;20073;-75
2023/07/09 01:17:32;;;;;;;8.02;5.00;;;;;;;18.38;100.00;96266.63;1030369;28;20029;-75
2023/07/09 01:18:04;;;;;;;11.25;5.15;;;;;;;18.42;100.00;96272.16;1038954;28;20399;-75
2023/07/09 01:18:36;;;;;;;11.70;5.10;;;;;;;18.39;100.00;96267.41;1041648;28;20063;-76
2023/07/09 01:19:07;;;;;;;9.25;5.35;;;;;;;18.41;100.00;96272.44;1038825;28;20489;-75
2023/07/09 01:19:42;;;;;;;11.30;5.25;;;;;;;18.38;100.00;96265.88;1037905;28;20056;-75
2023/07/09 01:20:20;;;;;;;10.98;5.05;;;;;;;18.38;100.00;96260.53;1041484;28;20029;-75
2023/07/09 01:20:55;;;;;;;10.52;5.60;;;;;;;18.33;100.00;96260.63;1038416;28;20060;-75
2023/07/09 01:21:27;;;;;;;9.82;4.50;;;;;;;18.35;100.00;96261.13;1031943;28;20112;-75
2023/07/09 01:22:01;;;;;;;6.05;4.30;;;;;;;18.41;100.00;96262.59;1026615;28;20030;-76
2023/07/09 01:22:32;;;;;;;6.95;4.70;;;;;;;18.42;100.00;96266.06;1030644;28;20172;-76
2023/07/09 01:23:02;;;;;;;15.63;5.10;;;;;;;18.38;100.00;96258.66;1031441;28;20026;-75
2023/07/09 01:23:33;;;;;;;8.05;4.80;;;;;;;18.41;100.00;96259.94;1032087;28;20030;-75
2023/07/09 01:24:35;;;;;;;8.20;5.07;;;;;;;18.41;100.00;96262.59;1034667;28;20022;-75
2023/07/09 01:25:07;;;;;;;8.35;4.32;;;;;;;18.42;100.00;96260.72;1038825;28;20681;-75
2023/07/09 01:25:41;;;;;;;9.68;5.40;;;;;;;18.40;100.00;96263.69;1038469;28;20059;-75
2023/07/09 01:26:17;;;;;;;8.73;4.40;;;;;;;18.38;100.00;96255.22;1034562;28;20010;-75
2023/07/09 01:26:47;;;;;;;10.05;4.82;;;;;;;18.40;100.00;96263.69;1030641;28;20165;-75
2023/07/09 01:27:22;;;;;;;13.32;4.90;;;;;;;18.37;100.00;96258.94;1029459;28;20500;-75
2023/07/09 01:27:52;;;;;;;12.80;5.22;;;;;;;18.40;100.00;96266.34;1034701;28;20033;-75
2023/07/09 01:28:23;;;;;;;9.02;4.60;;;;;;;18.39;100.00;96267.41;1030433;28;20030;-75
2023/07/09 01:28:54;;;;;;;9.10;4.40;;;;;;;18.35;100.00;96263.81;1029437;28;20105;-75
2023/07/09 01:29:25;;;;;;;7.22;4.18;;;;;;;18.38;100.00;96271.19;1030528;28;20041;-75
2023/07/09 01:29:56;;;;;;;10.20;5.03;;;;;;;18.35;100.00;96261.94;1034653;28;20522;-75
2023/07/09 01:30:37;;;;;;;11.98;4.85;;;;;;;18.38;100.00;96271.97;1034363;28;20113;-75
2023/07/09 01:31:08;;;;;;;9.32;5.30;;;;;;;18.32;100.00;96256.44;1027716;28;20026;-73
2023/07/09 01:31:38;;;;;;;7.63;5.10;;;;;;;18.36;100.00;96266.16;1033654;28;20061;-75
2023/07/09 01:32:10;;;;;;;9.32;4.93;;;;;;;18.37;100.00;96269.59;1035476;28;20049;-74
2023/07/09 01:32:45;;;;;;;10.35;4.32;;;;;;;18.34;100.00;96264.88;1035556;28;20788;-74
2023/07/09 01:33:15;;;;;;;9.00;4.32;;;;;;;18.35;100.00;96269.13;1029734;28;20068;-75
2023/07/09 01:33:46;;;;;;;9.02;4.30;;;;;;;18.34;100.00;96272.84;1031250;28;20057;-74
2023/07/09 01:34:16;;;;;;;9.57;4.28;;;;;;;18.33;100.00;96271.28;1030625;28;20092;-75
2023/07/09 01:34:47;;;;;;;8.60;4.65;;;;;;;18.26;100.00;96262.94;1032081;28;20038;-75
2023/07/09 01:35:20;;;;;;;9.65;4.72;;;;;;;18.28;100.00;96271.41;1030491;28;20030;-74
2023/07/09 01:35:52;;;;;;;9.50;4.70;;;;;;;18.27;100.00;96270.59;1027236;28;20481;-75
2023/07/09 01:36:23;;;;;;;9.07;4.70;;;;;;;18.24;100.00;96265.91;1030552;28;20027;-75
2023/07/09 01:36:53;;;;;;;7.30;4.43;;;;;;;18.24;100.00;96271.22;1034558;28;20026;-75
2023/07/09 01:37:25;;;;;;;10.85;4.72;;;;;;;18.21;100.00;96266.50;1030840;28;20042;-75
2023/07/09 01:37:56;;;;;;;7.05;4.60;;;;;;;18.26;100.00;96273.56;1026570;28;20034;-75
2023/07/09 01:38:30;;;;;;;8.05;4.57;;;;;;;18.19;100.00;96265.22;1026547;28;20027;-75
2023/07/09 01:39:00;;;;;;;8.80;4.60;;;;;;;18.22;100.00;96272.59;1030337;28;20033;-75
2023/07/09 01:39:31;;;;;;;9.10;4.25;;;;;;;18.16;100.00;96263.13;1030558;28;20428;-75
2023/07/09 01:40:04;;;;;;;7.38;4.68;;;;;;;18.17;100.00;96270.03;1030634;28;20027;-75
2023/07/09 01:40:35;;;;;;;11.25;4.68;;;;;;;18.18;100.00;96271.63;1034540;28;20585;-74
2023/07/09 01:41:13;;;;;;;12.25;4.72;;;;;;;18.13;100.00;96267.97;1034416;28;20041;-75
2023/07/09 01:41:45;;;;;;;12.07;4.80;;;;;;;18.11;100.00;96275.44;1030476;28;20081;-75
2023/07/09 01:42:17;;;;;;;10.10;5.30;;;;;;;18.09;100.00;96280.25;1032225;28;20041;-74
2023/07/09 01:42:48;;;;;;;16.42;5.45;;;;;;;18.08;100.00;96283.22;1034630;28;20535;-75
2023/07/09 01:43:18;;;;;;;10.10;4.63;;;;;;;18.01;100.00;96272.22;1025034;28;20023;-75
2023/07/09 01:43:49;;;;;;;12.13;5.05;;;;;;;17.98;100.00;96273.59;1030509;28;20029;-75
2023/07/09 01:44:19;;;;;;;12.05;4.78;;;;;;;17.95;100.00;96274.19;1033702;28;20041;-76
2023/07/09 01:44:50;;;;;;;14.38;5.18;;;;;;;17.90;100.00;96266.31;1034596;28;20033;-75
2023/07/09 01:45:21;;;;;;;11.63;4.93;;;;;;;17.85;100.00;96272.50;1034500;28;20021;-75
2023/07/09 01:45:51;;;;;;;22.42;5.97;;;;;;;17.88;100.00;96271.94;1036442;28;20495;-75
2023/07/09 01:46:22;;;;;;;19.73;5.45;;;;;;;17.81;100.00;96268.88;1038944;28;20022;-75
2023/07/09 01:46:53;;;;;;;10.82;5.22;;;;;;;17.78;100.00;96263.38;1034689;28;20026;-75
2023/07/09 01:47:23;;;;;;;13.55;4.78;;;;;;;17.83;100.00;96271.22;1038423;28;20033;-74
2023/07/09 01:47:55;;;;;;;10.52;4.88;;;;;;;17.77;100.00;96267.09;1038641;28;20025;-73
2023/07/09 01:48:25;;;;;;;12.95;5.10;;;;;;;17.76;100.00;96268.16;1034553;28;20032;-75
2023/07/09 01:48:56;;;;;;;9.88;4.82;;;;;;;17.72;100.00;96269.84;1034618;28;20522;-75
2023/07/09 01:49:29;;;;;;;8.88;4.18;;;;;;;17.71;100.00;96273.56;1037505;28;20029;-75
2023/07/09 01:50:00;;;;;;;7.72;4.53;;;;;;;17.69;100.00;96276.50;1038465;28;20037;-74
2023/07/09 01:50:30;;;;;;;7.50;5.10;;;;;;;17.65;100.00;96275.53;1030470;28;20440;-75
2023/07/09 01:51:02;;;;;;;8.93;4.45;;;;;;;17.60;100.00;96267.66;1030048;28;20034;-74
2023/07/09 01:51:32;;;;;;;6.95;4.70;;;;;;;17.62;100.00;96276.13;1034228;28;20080;-75
2023/07/09 01:52:04;;;;;;;12.40;5.75;;;;;;;17.62;100.00;96278.78;1030567;28;20097;-75
2023/07/09 01:52:34;;;;;;;10.25;4.90;;;;;;;17.61;100.00;96283.28;1035504;28;20109;-75
2023/07/09 01:53:04;;;;;;;7.72;5.05;;;;;;;17.59;100.00;96277.47;1030615;28;20026;-75
2023/07/09 01:53:37;;;;;;;11.50;5.35;;;;;;;17.51;100.00;96261.47;1026379;28;20026;-75
2023/07/09 01:54:08;;;;;;;17.92;5.05;;;;;;;17.61;100.00;96274.56;1030398;28;20037;-74
2023/07/09 01:54:38;;;;;;;6.90;4.97;;;;;;;17.62;100.00;96279.56;1034481;28;20037;-75
2023/07/09 01:55:10;;;;;;;8.40;5.35;;;;;;;17.57;100.00;96268.22;1038972;28;20033;-75
2023/07/09 01:55:40;;;;;;;8.20;4.70;;;;;;;17.61;100.00;96275.34;1030555;28;20026;-75
2023/07/09 01:56:11;;;;;;;8.70;4.88;;;;;;;17.61;100.00;96280.66;1029116;28;20026;-75
2023/07/09 01:56:41;;;;;;;8.40;4.50;;;;;;;17.64;100.00;96273.97;1030895;28;20036;-75
2023/07/09 01:57:22;;;;;;;8.02;4.97;;;;;;;17.64;100.00;96272.09;1035542;28;20544;-73
2023/07/09 01:57:53;;;;;;;9.10;5.13;;;;;;;17.66;100.00;96277.88;1037194;28;20037;-75
2023/07/09 01:58:24;;;;;;;8.93;5.10;;;;;;;17.65;100.00;96276.31;1034522;28;20030;-75
2023/07/09 01:59:00;;;;;;;10.73;5.35;;;;;;;17.66;100.00;96272.56;1030658;28;20073;-75
2023/07/09 01:59:32;;;;;;;11.45;5.85;;;;;;;17.67;100.00;96279.47;1031156;28;20129;-75
2023/07/09 02:00:15;;;;;;;13.90;5.57;;;;;;;17.67;100.00;96279.47;1035675;28;20030;-76
2023/07/09 02:00:46;;;;;;;10.82;4.68;;;;;;;17.65;100.00;96271.00;1038609;28;20573;-75
2023/07/09 02:01:19;;;;;;;13.13;5.10;;;;;;;17.68;100.00;96275.72;1040535;28;20044;-75
2023/07/09 02:01:57;;;;;;;7.90;4.47;;;;;;;17.64;100.00;96272.09;1042710;28;20029;-75
2023/07/09 02:02:28;;;;;;;8.68;5.05;;;;;;;17.70;100.00;96278.06;1040142;28;20040;-75
2023/07/09 02:03:00;;;;;;;7.25;4.45;;;;;;;17.70;100.00;96277.28;1038463;28;20072;-74
2023/07/09 02:03:30;;;;;;;8.27;5.57;;;;;;;17.70;100.00;96280.72;1041429;28;20065;-75
2023/07/09 02:04:01;;;;;;;8.40;5.25;;;;;;;17.73;100.00;96276.72;1034410;28;20424;-75
2023/07/09 02:04:31;;;;;;;8.13;4.57;;;;;;;17.69;100.00;96276.50;1034056;28;20061;-75
2023/07/09 02:05:02;;;;;;;9.55;5.68;;;;;;;17.67;100.00;96273.34;1031348;28;20041;-74
2023/07/09 02:05:32;;;;;;;6.78;4.93;;;;;;;17.65;100.00;96281.63;1031782;28;20519;-75
2023/07/09 02:06:09;;;;;;;8.95;4.93;;;;;;;17.65;100.00;96284.28;1038484;28;20029;-74
2023/07/09 02:06:39;;;;;;;8.73;4.85;;;;;;;17.57;100.00;96269.03;1038577;28;20040;-75
2023/07/09 02:07:09;;;;;;;8.65;5.68;;;;;;;17.64;100.00;96274.75;1038614;28;20036;-74
2023/07/09 02:07:40;;;;;;;12.73;5.60;;;;;;;17.62;100.00;96276.13;1039277;28;20067;-76
2023/07/09 02:08:10;;;;;;;11.52;5.45;;;;;;;17.61;100.00;96275.34;1034197;28;20125;-75
2023/07/09 02:08:41;;;;;;;11.13;5.38;;;;;;;17.62;100.00;96284.84;1034511;28;20026;-75
2023/07/09 02:09:11;;;;;;;7.97;5.60;;;;;;;17.62;100.00;96274.25;1030422;28;20026;-75
2023/07/09 02:09:42;;;;;;;12.40;5.57;;;;;;;17.57;100.00;96270.88;1030483;28;20385;-75
2023/07/09 02:10:13;;;;;;;9.23;4.97;;;;;;;17.56;100.00;96274.63;1030546;28;20049;-76
2023/07/09 02:10:44;;;;;;;9.23;5.00;;;;;;;17.56;100.00;96271.97;1030498;28;20081;-75
2023/07/09 02:11:15;;;;;;;8.18;5.18;;;;;;;17.53;100.00;96268.03;1033756;28;20026;-75
2023/07/09 02:11:46;;;;;;;13.90;5.68;;;;;;;17.60;100.00;96280.91;1034552;28;20515;-76
2023/07/09 02:12:16;;;;;;;7.55;4.95;;;;;;;17.52;100.00;96266.47;1034835;28;20030;-75
2023/07/09 02:12:47;;;;;;;9.80;5.18;;;;;;;17.53;100.00;96276.00;1026616;28;20038;-75
2023/07/09 02:13:17;;;;;;;8.05;5.15;;;;;;;17.59;100.00;96274.81;1026274;28;20030;-75
2023/07/09 02:13:48;;;;;;;8.65;5.30;;;;;;;17.59;100.00;96288.09;1030496;28;20030;-75
2023/07/09 02:14:19;;;;;;;9.13;5.00;;;;;;;17.61;100.00;96282.50;1030536;28;20026;-75
2023/07/09 02:14:49;;;;;;;6.95;5.05;;;;;;;17.59;100.00;96276.69;1038406;28;20029;-76
2023/07/09 02:15:20;;;;;;;8.77;5.47;;;;;;;17.60;100.00;96279.03;1042768;28;20033;-75
2023/07/09 02:15:50;;;;;;;9.23;4.80;;;;;;;17.58;100.00;96275.91;1042718;28;20418;-75
2023/07/09 02:16:20;;;;;;;6.57;4.80;;;;;;;17.60;100.00;96283.56;1038437;28;20487;-75
2023/07/09 02:16:52;;;;;;;12.77;5.25;;;;;;;17.58;100.00;96275.91;1038765;28;20034;-75
2023/07/09 02:17:22;;;;;;;8.48;5.07;;;;;;;17.58;100.00;96275.91;1038614;28;20575;-75
2023/07/09 02:17:52;;;;;;;9.90;5.13;;;;;;;17.60;100.00;96279.03;1034593;28;20034;-76
2023/07/09 02:18:23;;;;;;;9.15;5.15;;;;;;;17.61;100.00;96280.66;1030369;28;20038;-75
2023/07/09 02:18:53;;;;;;;7.60;4.60;;;;;;;17.59;100.00;96282.78;1034019;28;20026;-76
2023/07/09 02:19:24;;;;;;;8.95;4.75;;;;;;;17.60;100.00;96283.56;1034481;28;20031;-75
2023/07/09 02:19:54;;;;;;;8.10;4.82;;;;;;;17.58;100.00;96280.44;1034538;28;20725;-75
2023/07/09 02:20:28;;;;;;;12.18;5.60;;;;;;;17.55;100.00;96276.50;1036239;28;20052;-75
2023/07/09 02:20:58;;;;;;;10.18;5.47;;;;;;;17.58;100.00;96281.22;1034754;28;20069;-74
2023/07/09 02:21:29;;;;;;;7.75;4.60;;;;;;;17.53;100.00;96281.31;1038132;28;20077;-75
2023/07/09 02:22:00;;;;;;;10.65;4.90;;;;;;;17.53;100.00;96278.66;1038394;28;20569;-75
2023/07/09 02:22:30;;;;;;;7.90;5.10;;;;;;;17.46;100.00;96274.81;1035137;28;20084;-75
2023/07/09 02:23:02;;;;;;;7.20;4.65;;;;;;;17.52;100.00;96290.34;1030770;28;20034;-75
2023/07/09 02:23:32;;;;;;;8.85;5.00;;;;;;;17.50;100.00;96281.88;1032533;28;20092;-75
2023/07/09 02:24:03;;;;;;;7.40;4.95;;;;;;;17.43;100.00;96276.19;1035246;28;20539;-75
2023/07/09 02:24:33;;;;;;;6.70;4.75;;;;;;;17.43;100.00;96284.94;1031261;28;20473;-75
2023/07/09 02:25:05;;;;;;;10.38;4.65;;;;;;;17.37;100.00;96282.66;1034517;28;20026;-75
2023/07/09 02:25:38;;;;;;;7.63;5.00;;;;;;;17.39;100.00;96281.28;1037954;28;20045;-75
2023/07/09 02:26:09;;;;;;;9.07;5.10;;;;;;;17.38;100.00;96290.34;1034336;28;20079;-75
2023/07/09 02:26:40;;;;;;;10.38;6.18;;;;;;;17.38;100.00;96286.91;1031123;28;20326;-75
2023/07/09 02:27:15;;;;;;;8.77;4.97;;;;;;;17.34;100.00;96286.69;1036862;28;20472;-75
2023/07/09 02:27:46;;;;;;;8.13;4.72;;;;;;;17.32;100.00;96288.06;1036219;28;20021;-75
2023/07/09 02:28:16;;;;;;;10.73;5.45;;;;;;;17.32;100.00;96286.19;1039677;28;20033;-75
2023/07/09 02:28:47;;;;;;;8.77;4.60;;;;;;;17.29;100.00;96289.44;1038412;28;20030;-74
2023/07/09 02:29:17;;;;;;;13.20;5.70;;;;;;;17.28;100.00;96292.38;1034658;28;20037;-74
2023/07/09 02:29:48;;;;;;;7.95;5.32;;;;;;;17.22;100.00;96282.94;1030720;28;20030;-74
2023/07/09 02:30:18;;;;;;;10.60;5.25;;;;;;;17.27;100.00;96288.94;1034726;28;20026;-75
2023/07/09 02:30:49;;;;;;;6.32;4.82;;;;;;;17.30;100.00;96284.91;1038605;28;20022;-75